createdAt,value
2022-08-18T00:00:57.229Z,34.45
2022-08-18T00:03:27.154Z,36.10
2022-08-18T00:06:10.736Z,33.80
2022-08-18T00:08:38.670Z,35.97
2022-08-18T00:11:06.432Z,35.50
2022-08-18T00:13:33.161Z,39.83
2022-08-18T00:15:59.753Z,34.67
2022-08-18T00:18:26.311Z,40.47
2022-08-18T00:20:53.107Z,38.35
2022-08-18T00:25:38.144Z,37.80
2022-08-18T00:28:05.881Z,35.10
2022-08-18T00:30:32.775Z,41.00
2022-08-18T00:33:01.337Z,38.08
2022-08-18T00:35:34.834Z,40.00
2022-08-18T00:38:04.239Z,38.58
2022-08-18T00:40:38.961Z,35.50
2022-08-18T00:43:08.189Z,36.28
2022-08-18T00:45:43.043Z,35.65
2022-08-18T00:48:11.275Z,45.10
2022-08-18T00:51:07.548Z,37.45
2022-08-18T00:53:42.068Z,36.55
2022-08-18T00:56:13.527Z,39.97
2022-08-18T00:58:52.088Z,35.40
2022-08-18T01:01:25.979Z,39.65
2022-08-18T01:03:58.552Z,41.22
2022-08-18T01:06:33.208Z,41.65
2022-08-18T01:09:00.300Z,37.88
2022-08-18T01:11:28.165Z,36.47
2022-08-18T01:13:55.316Z,38.70
2022-08-18T01:16:52.359Z,47.15
2022-08-18T01:19:43.045Z,39.88
2022-08-18T01:22:49.765Z,46.35
2022-08-18T01:25:38.268Z,42.45
2022-08-18T01:28:05.789Z,35.28
2022-08-18T01:30:44.123Z,44.47
2022-08-18T01:33:12.265Z,47.20
2022-08-18T01:35:43.193Z,46.42
2022-08-18T01:41:23.172Z,45.00
2022-08-18T01:43:19.056Z,53.15
2022-08-18T01:45:45.753Z,54.58
2022-08-18T01:48:12.376Z,46.85
2022-08-18T01:50:41.296Z,50.17
2022-08-18T01:53:08.451Z,48.85
2022-08-18T01:55:37.056Z,46.90
2022-08-18T01:58:04.785Z,42.55
2022-08-18T02:00:32.370Z,56.28
2022-08-18T02:03:02.628Z,48.80
2022-08-18T02:05:36.457Z,46.15
2022-08-18T02:08:05.445Z,56.72
2022-08-18T02:10:33.425Z,48.15
2022-08-18T02:13:00.109Z,52.47
2022-08-18T02:15:28.070Z,52.13
2022-08-18T02:17:54.767Z,51.35
2022-08-18T02:20:21.626Z,52.10
2022-08-18T02:22:49.526Z,60.90
2022-08-18T02:25:17.438Z,45.25
2022-08-18T02:27:45.866Z,46.15
2022-08-18T02:30:15.522Z,44.92
2022-08-18T02:32:42.577Z,48.20
2022-08-18T02:35:11.802Z,46.30
2022-08-18T02:37:42.759Z,45.20
2022-08-18T02:40:15.498Z,52.92
2022-08-18T02:42:44.383Z,55.47
2022-08-18T02:45:12.731Z,51.60
2022-08-18T02:47:39.855Z,40.20
2022-08-18T02:50:07.901Z,42.35
2022-08-18T02:52:38.369Z,41.70
2022-08-18T02:55:07.599Z,44.22
2022-08-18T02:57:34.244Z,47.10
2022-08-18T03:00:00.818Z,44.72
2022-08-18T03:02:27.785Z,41.80
2022-08-18T03:04:54.354Z,42.13
2022-08-18T03:07:21.068Z,42.60
2022-08-18T03:09:47.622Z,42.80
2022-08-18T03:12:14.238Z,50.20
2022-08-18T03:14:40.824Z,50.55
2022-08-18T03:17:09.401Z,60.05
2022-08-18T03:19:36.762Z,51.42
2022-08-18T03:22:05.856Z,57.50
2022-08-18T03:24:52.572Z,63.67
2022-08-18T03:27:19.182Z,64.90
2022-08-18T03:29:45.742Z,62.95
2022-08-18T03:32:12.327Z,61.90
2022-08-18T03:34:39.020Z,60.20
2022-08-18T03:37:05.682Z,59.03
2022-08-18T03:39:32.493Z,52.00
2022-08-18T03:42:01.594Z,56.47
2022-08-18T03:44:36.596Z,57.13
2022-08-18T03:47:04.299Z,55.97
2022-08-18T03:52:00.621Z,53.65
2022-08-18T03:54:28.477Z,44.63
2022-08-18T03:56:55.979Z,40.03
2022-08-18T03:59:25.447Z,40.92
2022-08-18T04:01:54.923Z,38.83
2022-08-18T04:04:25.054Z,35.65
2022-08-18T04:06:58.445Z,42.15
2022-08-18T04:09:28.040Z,37.28
2022-08-18T04:11:55.417Z,43.00
2022-08-18T04:14:24.957Z,45.47
2022-08-18T04:16:52.093Z,45.70
2022-08-18T04:19:27.367Z,52.10
2022-08-18T04:21:58.304Z,62.13
2022-08-18T04:24:28.138Z,60.15
2022-08-18T04:27:00.985Z,52.40
2022-08-18T04:29:29.185Z,54.03
2022-08-18T04:31:56.122Z,48.63
2022-08-18T04:34:22.930Z,40.70
2022-08-18T04:36:53.852Z,45.65
2022-08-18T04:39:21.795Z,39.42
2022-08-18T04:44:07.424Z,40.08
2022-08-18T04:46:49.531Z,38.22
2022-08-18T04:49:18.891Z,40.25
2022-08-18T04:54:16.364Z,42.88
2022-08-18T04:56:43.543Z,46.80
2022-08-18T04:59:14.276Z,49.10
2022-08-18T05:01:47.519Z,43.80
2022-08-18T05:04:16.201Z,47.75
2022-08-18T05:06:44.797Z,49.80
2022-08-18T05:09:16.880Z,45.15
2022-08-18T05:11:51.009Z,41.20
2022-08-18T05:14:18.651Z,48.35
2022-08-18T05:16:48.138Z,45.25
2022-08-18T05:19:21.869Z,47.50
2022-08-18T05:21:52.183Z,49.33
2022-08-18T05:24:20.676Z,64.45
2022-08-18T05:26:48.962Z,51.55
2022-08-18T05:31:29.009Z,54.13
2022-08-18T05:36:43.589Z,45.85
2022-08-18T05:39:25.145Z,53.55
2022-08-18T05:42:07.562Z,51.33
2022-08-18T05:44:43.060Z,59.72
2022-08-18T05:47:16.126Z,50.92
2022-08-18T05:49:49.092Z,49.95
2022-08-18T05:52:27.636Z,56.50
2022-08-18T05:57:22.450Z,53.67
2022-08-18T05:59:53.812Z,53.50
2022-08-18T06:02:38.568Z,53.58
2022-08-18T06:05:12.767Z,54.50
2022-08-18T06:07:49.121Z,57.05
2022-08-18T06:10:16.276Z,51.08
2022-08-18T06:12:53.491Z,45.60
2022-08-18T06:15:33.925Z,56.97
2022-08-18T06:18:26.501Z,51.25
2022-08-18T06:21:04.917Z,40.85
2022-08-18T06:23:40.487Z,38.88
2022-08-18T06:26:18.406Z,43.22
2022-08-18T06:29:05.241Z,47.25
2022-08-18T06:32:01.259Z,40.58
2022-08-18T06:35:12.031Z,42.78
2022-08-18T06:38:19.061Z,39.53
2022-08-18T06:40:48.697Z,37.25
2022-08-18T06:43:17.113Z,40.03
2022-08-18T06:45:51.812Z,42.20
2022-08-18T06:48:37.631Z,40.72
2022-08-18T06:51:07.845Z,38.85
2022-08-18T06:54:01.710Z,34.22
2022-08-18T06:56:34.996Z,35.78
2022-08-18T06:59:16.145Z,32.53
2022-08-18T07:01:44.263Z,39.50
2022-08-18T07:04:33.612Z,37.53
2022-08-18T07:07:13.553Z,33.03
2022-08-18T07:09:40.431Z,29.73
2022-08-18T07:12:09.404Z,27.50
2022-08-18T07:14:52.565Z,33.63
2022-08-18T07:17:42.471Z,29.95
2022-08-18T07:20:31.244Z,36.17
2022-08-18T07:23:01.026Z,31.58
2022-08-18T07:25:46.653Z,27.13
2022-08-18T07:28:33.777Z,29.27
2022-08-18T07:31:25.005Z,30.30
2022-08-18T07:36:19.544Z,28.42
2022-08-18T07:41:38.789Z,26.55
2022-08-18T07:44:16.431Z,28.50
2022-08-18T07:46:58.661Z,22.42
2022-08-18T07:49:33.399Z,25.98
2022-08-18T07:52:36.164Z,23.88
2022-08-18T07:55:29.007Z,27.33
2022-08-18T07:58:23.408Z,22.15
2022-08-18T08:01:09.537Z,29.05
2022-08-18T08:04:25.486Z,25.63
2022-08-18T08:07:23.968Z,29.08
2022-08-18T08:10:00.429Z,27.45
2022-08-18T08:12:39.928Z,25.73
2022-08-18T08:15:27.626Z,23.42
2022-08-18T08:18:18.558Z,22.77
2022-08-18T08:20:57.536Z,23.53
2022-08-18T08:23:46.019Z,21.02
2022-08-18T08:26:21.724Z,31.67
2022-08-18T08:28:55.919Z,21.27
2022-08-18T08:33:50.325Z,31.88
2022-08-18T08:36:25.681Z,21.05
2022-08-18T08:38:58.101Z,14.93
2022-08-18T08:41:36.089Z,17.40
2022-08-18T08:44:21.540Z,19.45
2022-08-18T08:47:13.033Z,20.23
2022-08-18T08:50:00.409Z,16.60
2022-08-18T08:52:35.167Z,21.30
2022-08-18T08:55:14.739Z,27.55
2022-08-18T08:57:49.780Z,18.80
2022-08-18T09:00:16.794Z,18.73
2022-08-18T09:02:52.257Z,27.52
2022-08-18T09:05:24.912Z,22.98
2022-08-18T09:08:20.182Z,20.52
2022-08-18T09:11:08.478Z,17.25
2022-08-18T09:14:08.414Z,22.15
2022-08-18T09:16:49.120Z,18.95
2022-08-18T09:19:59.232Z,24.00
2022-08-18T09:22:42.310Z,24.25
2022-08-18T09:25:11.373Z,19.73
2022-08-18T09:28:10.060Z,22.23
2022-08-18T09:30:55.196Z,20.73
2022-08-18T09:33:40.648Z,29.05
2022-08-18T09:36:21.101Z,23.20
2022-08-18T09:39:18.586Z,21.88
2022-08-18T09:42:01.688Z,24.92
2022-08-18T09:44:48.680Z,24.40
2022-08-18T09:47:22.227Z,23.20
2022-08-18T09:50:26.946Z,22.42
2022-08-18T09:52:57.759Z,17.92
2022-08-18T09:55:24.408Z,24.03
2022-08-18T09:58:14.972Z,23.67
2022-08-18T10:00:46.540Z,24.48
2022-08-18T10:03:25.731Z,20.88
2022-08-18T10:06:05.100Z,23.77
2022-08-18T10:09:14.723Z,18.52
2022-08-18T10:12:40.318Z,19.13
2022-08-18T10:15:13.128Z,19.85
2022-08-18T10:18:01.645Z,18.77
2022-08-18T10:20:47.641Z,19.42
2022-08-18T10:25:34.287Z,24.58
2022-08-18T10:28:05.393Z,20.55
2022-08-18T10:30:56.264Z,21.77
2022-08-18T10:33:56.977Z,22.33
2022-08-18T10:36:58.967Z,22.73
2022-08-18T10:42:33.672Z,21.35
2022-08-18T10:45:12.445Z,21.40
2022-08-18T10:47:42.843Z,21.80
2022-08-18T10:50:23.004Z,25.63
2022-08-18T10:53:40.553Z,17.40
2022-08-18T10:56:16.868Z,21.88
2022-08-18T10:59:08.427Z,21.20
2022-08-18T11:02:16.457Z,21.40
2022-08-18T11:07:38.718Z,19.23
2022-08-18T11:13:46.628Z,22.92
2022-08-18T11:16:37.882Z,16.45
2022-08-18T11:19:12.758Z,18.10
2022-08-18T11:21:43.415Z,21.38
2022-08-18T11:24:13.448Z,21.17
2022-08-18T11:30:12.068Z,18.55
2022-08-18T11:32:51.439Z,17.65
2022-08-18T11:35:21.908Z,17.20
2022-08-18T11:37:56.117Z,13.63
2022-08-18T11:43:41.700Z,17.88
2022-08-18T11:46:29.362Z,23.48
2022-08-18T11:49:00.029Z,15.20
2022-08-18T11:51:32.244Z,18.45
2022-08-18T11:54:01.011Z,22.33
2022-08-18T11:59:52.981Z,23.83
2022-08-18T12:02:17.465Z,16.88
2022-08-18T12:04:44.647Z,17.58
2022-08-18T12:07:20.500Z,17.25
2022-08-18T12:10:28.421Z,19.38
2022-08-18T12:12:57.529Z,15.63
2022-08-18T12:15:46.588Z,13.77
2022-08-18T12:18:26.473Z,17.02
2022-08-18T12:21:05.405Z,15.30
2022-08-18T12:23:39.095Z,12.48
2022-08-18T12:26:27.344Z,15.20
2022-08-18T12:29:01.230Z,16.60
2022-08-18T12:31:29.140Z,13.05
2022-08-18T12:37:00.812Z,18.90
2022-08-18T12:41:56.214Z,16.92
2022-08-18T12:44:29.157Z,14.45
2022-08-18T12:46:56.040Z,15.00
2022-08-18T12:49:25.498Z,15.88
2022-08-18T12:54:55.557Z,14.23
2022-08-18T12:57:33.499Z,18.17
2022-08-18T13:00:18.748Z,17.13
2022-08-18T13:05:12.505Z,14.80
2022-08-18T13:09:54.654Z,13.25
2022-08-18T13:12:22.469Z,14.75
2022-08-18T13:19:33.393Z,13.00
2022-08-18T13:22:00.468Z,12.35
2022-08-18T13:24:27.424Z,13.27
2022-08-18T13:26:55.497Z,15.88
2022-08-18T13:29:22.220Z,14.80
2022-08-18T13:31:55.840Z,14.40
2022-08-18T13:34:29.831Z,15.57
2022-08-18T13:36:57.440Z,18.98
2022-08-18T13:39:24.830Z,15.45
2022-08-18T13:42:01.381Z,15.68
2022-08-18T13:44:52.864Z,11.38
2022-08-18T13:47:20.161Z,12.25
2022-08-18T13:49:57.986Z,16.30
2022-08-18T13:52:34.847Z,13.13
2022-08-18T13:55:08.368Z,13.65
2022-08-18T13:57:36.741Z,9.85
2022-08-18T14:00:06.442Z,13.73
2022-08-18T14:02:40.427Z,13.80
2022-08-18T14:05:09.331Z,16.25
2022-08-18T14:07:38.393Z,15.73
2022-08-18T14:10:13.292Z,14.23
2022-08-18T14:12:41.309Z,17.63
2022-08-18T14:15:11.838Z,12.23
2022-08-18T14:17:39.257Z,12.90
2022-08-18T14:20:27.586Z,11.75
2022-08-18T14:23:21.807Z,10.88
2022-08-18T14:26:09.934Z,13.82
2022-08-18T14:28:38.450Z,14.75
2022-08-18T14:31:08.603Z,12.63
2022-08-18T14:33:50.577Z,16.20
2022-08-18T14:36:19.544Z,10.35
2022-08-18T14:38:46.418Z,14.65
2022-08-18T14:41:19.137Z,10.68
2022-08-18T14:44:11.473Z,11.25
2022-08-18T14:46:34.719Z,15.13
2022-08-18T14:49:03.920Z,13.95
2022-08-18T14:51:33.641Z,14.07
2022-08-18T14:54:01.985Z,15.40
2022-08-18T14:56:29.733Z,15.68
2022-08-18T14:59:01.000Z,16.33
2022-08-18T15:01:27.782Z,13.88
2022-08-18T15:04:18.604Z,15.63
2022-08-18T15:06:56.555Z,16.00
2022-08-18T15:09:26.997Z,19.80
2022-08-18T15:11:56.343Z,19.13
2022-08-18T15:14:33.118Z,12.45
2022-08-18T15:17:11.849Z,13.93
2022-08-18T15:19:58.373Z,15.13
2022-08-18T15:22:45.012Z,16.27
2022-08-18T15:25:30.183Z,17.23
2022-08-18T15:27:57.655Z,16.08
2022-08-18T15:30:26.321Z,13.15
2022-08-18T15:32:53.799Z,16.15
2022-08-18T15:35:20.630Z,16.80
2022-08-18T15:37:51.096Z,15.85
2022-08-18T15:40:30.836Z,11.48
2022-08-18T15:43:09.710Z,12.75
2022-08-18T15:45:42.917Z,14.48
2022-08-18T15:48:12.611Z,17.40
2022-08-18T15:50:40.428Z,17.90
2022-08-18T15:53:11.532Z,16.48
2022-08-18T15:55:40.648Z,14.07
2022-08-18T15:58:11.215Z,12.48
2022-08-18T16:00:42.683Z,15.23
2022-08-18T16:03:14.410Z,16.13
2022-08-18T16:05:53.440Z,15.10
2022-08-18T16:08:23.543Z,17.30
2022-08-18T16:10:50.823Z,15.52
2022-08-18T16:13:17.869Z,15.68
2022-08-18T16:15:48.071Z,13.48
2022-08-18T16:18:18.640Z,18.30
2022-08-18T16:20:45.977Z,14.07
2022-08-18T16:23:13.648Z,15.40
2022-08-18T16:25:42.133Z,19.77
2022-08-18T16:28:09.467Z,15.75
2022-08-18T16:30:36.316Z,17.60
2022-08-18T16:33:04.892Z,19.15
2022-08-18T16:35:33.088Z,17.60
2022-08-18T16:38:05.768Z,19.23
2022-08-18T16:40:35.193Z,18.45
2022-08-18T16:43:01.799Z,13.35
2022-08-18T16:45:28.747Z,11.30
2022-08-18T16:47:55.625Z,13.63
2022-08-18T16:50:23.529Z,16.90
2022-08-18T16:52:50.199Z,13.95
2022-08-18T16:55:17.049Z,12.35
2022-08-18T16:58:03.075Z,11.88
2022-08-18T17:00:54.465Z,17.70
2022-08-18T17:05:43.139Z,14.52
2022-08-18T17:08:09.763Z,16.13
2022-08-18T17:10:37.909Z,17.58
2022-08-18T17:13:06.446Z,14.38
2022-08-18T17:15:33.777Z,18.42
2022-08-18T17:18:01.228Z,18.90
2022-08-18T17:20:27.846Z,15.10
2022-08-18T17:22:55.315Z,13.20
2022-08-18T17:25:24.979Z,16.02
2022-08-18T17:27:51.747Z,18.83
2022-08-18T17:30:22.679Z,11.27
2022-08-18T17:32:54.932Z,15.23
2022-08-18T17:38:11.890Z,15.85
2022-08-18T17:41:07.649Z,11.75
2022-08-18T17:43:38.162Z,15.10
2022-08-18T17:46:27.080Z,15.27
2022-08-18T17:49:05.925Z,18.67
2022-08-18T17:51:44.387Z,14.77
2022-08-18T17:54:36.399Z,13.27
2022-08-18T18:00:13.841Z,18.70
2022-08-18T18:02:42.581Z,16.13
2022-08-18T18:05:14.265Z,17.38
2022-08-18T18:10:14.317Z,25.17
2022-08-18T18:12:41.452Z,15.63
2022-08-18T18:15:11.907Z,15.55
2022-08-18T18:17:43.287Z,18.08
2022-08-18T18:20:40.384Z,21.23
2022-08-18T18:23:19.452Z,18.65
2022-08-18T18:25:46.396Z,18.90
2022-08-18T18:28:34.215Z,21.60
2022-08-18T18:31:21.461Z,24.35
2022-08-18T18:33:55.993Z,14.32
2022-08-18T18:36:35.150Z,18.95
2022-08-18T18:39:14.697Z,14.68
2022-08-18T18:41:41.696Z,18.60
2022-08-18T18:44:10.664Z,20.30
2022-08-18T18:46:49.424Z,21.38
2022-08-18T18:49:26.670Z,17.02
2022-08-18T18:52:19.253Z,16.70
2022-08-18T18:55:14.704Z,16.35
2022-08-18T18:58:11.356Z,20.33
2022-08-18T19:00:53.561Z,16.02
2022-08-18T19:03:28.684Z,19.42
2022-08-18T19:06:08.232Z,15.52
2022-08-18T19:08:39.558Z,20.80
2022-08-18T19:11:19.345Z,18.52
2022-08-18T19:13:57.876Z,15.10
2022-08-18T19:16:33.807Z,17.13
2022-08-18T19:19:36.948Z,16.20
2022-08-18T19:22:06.711Z,13.60
2022-08-18T19:24:40.768Z,18.13
2022-08-18T19:27:17.675Z,15.85
2022-08-18T19:29:53.300Z,15.55
2022-08-18T19:32:35.869Z,20.92
2022-08-18T19:35:10.563Z,17.45
2022-08-18T19:37:47.979Z,18.55
2022-08-18T19:40:26.420Z,18.80
2022-08-18T19:42:58.555Z,15.68
2022-08-18T19:45:36.552Z,17.42
2022-08-18T19:48:39.296Z,18.45
2022-08-18T19:51:26.816Z,17.90
2022-08-18T19:53:59.156Z,16.90
2022-08-18T19:56:47.349Z,19.42
2022-08-18T19:59:34.032Z,19.17
2022-08-18T20:02:29.181Z,17.70
2022-08-18T20:05:18.585Z,17.67
2022-08-18T20:08:15.493Z,16.52
2022-08-18T20:11:41.835Z,21.42
2022-08-18T20:14:15.045Z,14.55
2022-08-18T20:16:44.904Z,16.25
2022-08-18T20:19:50.036Z,17.85
2022-08-18T20:22:22.041Z,16.45
2022-08-18T20:24:59.629Z,16.55
2022-08-18T20:27:39.788Z,15.35
2022-08-18T20:30:50.613Z,18.75
2022-08-18T20:33:30.571Z,18.25
2022-08-18T20:36:24.101Z,14.30
2022-08-18T20:38:54.529Z,14.52
2022-08-18T20:41:26.446Z,17.65
2022-08-18T20:44:13.209Z,17.27
2022-08-18T20:46:56.893Z,16.90
2022-08-18T20:49:45.028Z,19.13
2022-08-18T20:52:29.542Z,20.20
2022-08-18T20:55:30.789Z,19.48
2022-08-18T20:58:05.585Z,13.53
2022-08-18T21:00:37.379Z,19.67
2022-08-18T21:03:12.539Z,15.40
2022-08-18T21:05:43.631Z,20.42
2022-08-18T21:08:16.511Z,19.38
2022-08-18T21:10:52.251Z,18.23
2022-08-18T21:13:31.093Z,18.70
2022-08-18T21:15:59.289Z,20.25
2022-08-18T21:18:27.032Z,14.23
2022-08-18T21:20:57.943Z,21.00
2022-08-18T21:23:39.229Z,17.90
2022-08-18T21:26:14.670Z,21.08
2022-08-18T21:28:46.052Z,22.13
2022-08-18T21:31:42.575Z,23.02
2022-08-18T21:34:28.517Z,24.98
2022-08-18T21:36:57.978Z,20.17
2022-08-18T21:39:25.251Z,20.48
2022-08-18T21:41:55.055Z,24.30
2022-08-18T21:44:24.895Z,24.00
2022-08-18T21:47:05.503Z,23.42
2022-08-18T21:49:33.901Z,24.45
2022-08-18T21:52:00.839Z,28.17
2022-08-18T21:54:34.551Z,25.80
2022-08-18T21:57:18.489Z,28.60
2022-08-18T22:00:20.521Z,30.13
2022-08-18T22:02:51.090Z,25.60
2022-08-18T22:05:58.578Z,23.65
2022-08-18T22:08:46.611Z,24.02
2022-08-18T22:12:01.084Z,22.13
2022-08-18T22:14:35.857Z,21.92
2022-08-18T22:17:52.045Z,23.55
2022-08-18T22:20:39.812Z,25.10
2022-08-18T22:23:34.074Z,27.90
2022-08-18T22:26:17.569Z,29.85
2022-08-18T22:28:52.930Z,25.10
2022-08-18T22:31:21.510Z,35.40
2022-08-18T22:33:50.311Z,34.80
2022-08-18T22:36:25.465Z,25.50
2022-08-18T22:38:52.408Z,26.73
2022-08-18T22:41:20.411Z,26.95
2022-08-18T22:43:48.409Z,24.13
2022-08-18T22:46:21.665Z,23.60
2022-08-18T22:48:52.210Z,26.48
2022-08-18T22:51:22.403Z,26.30
2022-08-18T22:53:48.963Z,24.50
2022-08-18T22:56:15.569Z,23.52
2022-08-18T22:58:49.401Z,25.48
2022-08-18T23:01:17.903Z,28.35
2022-08-18T23:03:44.554Z,24.10
2022-08-18T23:08:32.307Z,26.08
2022-08-18T23:11:12.668Z,35.58
2022-08-18T23:13:40.929Z,27.83
2022-08-18T23:16:30.892Z,28.10
2022-08-18T23:18:56.324Z,36.90
2022-08-18T23:21:35.121Z,29.05
2022-08-18T23:24:06.439Z,23.60
2022-08-18T23:26:34.292Z,26.73
2022-08-18T23:29:01.748Z,25.38
2022-08-18T23:31:30.295Z,24.13
2022-08-18T23:33:58.853Z,24.25
2022-08-18T23:36:25.530Z,24.20
2022-08-18T23:38:54.001Z,26.63
2022-08-18T23:41:21.639Z,28.10
2022-08-18T23:43:49.392Z,26.33
2022-08-18T23:46:22.001Z,28.05
2022-08-18T23:48:52.863Z,26.40
2022-08-18T23:51:34.756Z,32.27
2022-08-18T23:54:07.671Z,25.33
2022-08-18T23:56:35.591Z,25.00
